createdAt,value
2022-12-06T00:01:16.052Z,80.64
2022-12-06T00:03:45.200Z,79.49
2022-12-06T00:06:19.433Z,80.39
2022-12-06T00:08:47.907Z,81.43
2022-12-06T00:11:20.682Z,79.91
2022-12-06T00:13:48.536Z,79.93
2022-12-06T00:16:17.026Z,80.65
2022-12-06T00:18:46.816Z,80.91
2022-12-06T00:21:22.724Z,82.96
2022-12-06T00:23:55.629Z,84.46
2022-12-06T00:26:24.068Z,84.43
2022-12-06T00:28:56.311Z,83.25
2022-12-06T00:31:25.438Z,84.18
2022-12-06T00:33:53.328Z,83.31
2022-12-06T00:36:31.520Z,83.26
2022-12-06T00:39:00.857Z,84.02
2022-12-06T00:41:30.882Z,85.93
2022-12-06T00:43:58.212Z,87.90
2022-12-06T00:46:32.167Z,86.51
2022-12-06T00:49:00.622Z,87.14
2022-12-06T00:51:30.997Z,86.45
2022-12-06T00:53:58.992Z,85.76
2022-12-06T00:56:27.834Z,85.06
2022-12-06T00:58:55.592Z,84.23
2022-12-06T01:01:30.471Z,84.28
2022-12-06T01:04:00.251Z,83.66
2022-12-06T01:06:30.212Z,83.41
2022-12-06T01:09:00.349Z,81.49
2022-12-06T01:11:29.208Z,80.92
2022-12-06T01:13:56.861Z,80.59
2022-12-06T01:16:27.288Z,82.98
2022-12-06T01:18:57.031Z,85.00
2022-12-06T01:21:25.650Z,86.79
2022-12-06T01:23:54.453Z,88.48
2022-12-06T01:26:25.224Z,89.13
2022-12-06T01:28:53.480Z,90.24
2022-12-06T01:31:21.078Z,90.79
2022-12-06T01:33:48.674Z,89.69
2022-12-06T01:36:18.479Z,90.18
2022-12-06T01:38:52.245Z,87.98
2022-12-06T01:41:21.193Z,88.31
2022-12-06T01:43:48.950Z,90.48
2022-12-06T01:46:25.120Z,88.88
2022-12-06T01:48:58.169Z,86.66
2022-12-06T01:51:25.631Z,86.50
2022-12-06T01:53:54.008Z,86.55
2022-12-06T01:56:21.625Z,86.50
2022-12-06T01:58:50.113Z,91.38
2022-12-06T02:01:17.856Z,95.37
2022-12-06T02:03:47.566Z,92.62
2022-12-06T02:06:15.687Z,88.10
2022-12-06T02:08:43.704Z,85.75
2022-12-06T02:11:11.341Z,86.91
2022-12-06T02:13:39.138Z,85.04
2022-12-06T02:16:24.949Z,85.43
2022-12-06T02:19:17.665Z,83.99
2022-12-06T02:22:07.777Z,82.65
2022-12-06T02:24:51.160Z,81.83
2022-12-06T02:27:32.281Z,82.00
2022-12-06T02:30:11.964Z,81.03
2022-12-06T02:33:00.233Z,79.88
2022-12-06T02:35:33.402Z,81.14
2022-12-06T02:38:08.829Z,86.48
2022-12-06T02:40:57.265Z,87.20
2022-12-06T02:43:28.594Z,82.60
2022-12-06T02:45:58.021Z,84.45
2022-12-06T02:48:25.995Z,85.31
2022-12-06T02:50:57.278Z,87.82
2022-12-06T02:53:26.402Z,84.51
2022-12-06T02:55:54.145Z,84.49
2022-12-06T02:58:21.462Z,83.99
2022-12-06T03:00:59.272Z,83.67
2022-12-06T03:04:00.762Z,85.03
2022-12-06T03:06:40.758Z,85.83
2022-12-06T03:09:52.727Z,85.16
2022-12-06T03:12:30.667Z,86.43
2022-12-06T03:15:09.882Z,86.54
2022-12-06T03:17:43.571Z,85.41
2022-12-06T03:20:42.624Z,85.06
2022-12-06T03:23:40.135Z,84.49
2022-12-06T03:26:11.057Z,85.54
2022-12-06T03:28:39.512Z,85.03
2022-12-06T03:31:11.010Z,88.15
2022-12-06T03:33:49.413Z,87.23
2022-12-06T03:36:18.639Z,85.99
2022-12-06T03:38:55.711Z,84.64
2022-12-06T03:41:25.970Z,87.98
2022-12-06T03:43:53.663Z,87.21
2022-12-06T03:46:24.517Z,87.87
2022-12-06T03:48:55.903Z,90.30
2022-12-06T03:51:26.662Z,88.15
2022-12-06T03:53:57.646Z,87.95
2022-12-06T03:56:26.106Z,87.50
2022-12-06T03:58:53.488Z,85.89
2022-12-06T04:01:20.942Z,86.51
2022-12-06T04:03:48.659Z,85.21
2022-12-06T04:06:16.050Z,85.22
2022-12-06T04:08:43.384Z,84.07
2022-12-06T04:11:10.965Z,87.73
2022-12-06T04:13:38.368Z,95.21
2022-12-06T04:16:26.133Z,99.53
2022-12-06T04:18:54.869Z,95.48
2022-12-06T04:21:31.498Z,94.42
2022-12-06T04:23:59.842Z,91.20
2022-12-06T04:26:27.243Z,90.66
2022-12-06T04:29:13.127Z,90.00
2022-12-06T04:31:59.259Z,87.93
2022-12-06T04:34:44.996Z,88.65
2022-12-06T04:37:30.961Z,87.08
2022-12-06T04:39:58.710Z,86.54
2022-12-06T04:42:45.423Z,83.52
2022-12-06T04:45:12.748Z,83.85
2022-12-06T04:47:40.363Z,83.91
2022-12-06T04:50:07.909Z,84.14
2022-12-06T04:52:36.166Z,83.54
2022-12-06T04:55:04.950Z,81.36
2022-12-06T04:57:32.449Z,80.28
2022-12-06T05:00:00.102Z,80.14
2022-12-06T05:02:28.041Z,79.17
2022-12-06T05:04:55.347Z,79.72
2022-12-06T05:07:22.703Z,80.33
2022-12-06T05:09:51.344Z,80.82
2022-12-06T05:12:18.656Z,81.45
2022-12-06T05:14:46.988Z,80.92
2022-12-06T05:17:14.558Z,80.02
2022-12-06T05:19:41.861Z,80.43
2022-12-06T05:22:09.234Z,80.59
2022-12-06T05:24:36.819Z,80.83
2022-12-06T05:27:04.163Z,83.90
2022-12-06T05:29:31.529Z,82.57
2022-12-06T05:31:59.135Z,79.45
2022-12-06T05:34:26.577Z,80.01
2022-12-06T05:36:53.902Z,79.31
2022-12-06T05:39:21.510Z,78.38
2022-12-06T05:41:48.805Z,78.96
2022-12-06T05:44:16.207Z,79.91
2022-12-06T05:46:43.867Z,79.73
2022-12-06T05:49:11.188Z,81.92
2022-12-06T05:51:38.779Z,82.95
2022-12-06T05:54:06.751Z,83.07
2022-12-06T05:56:34.146Z,79.96
2022-12-06T05:59:01.508Z,80.74
2022-12-06T06:01:29.377Z,82.59
2022-12-06T06:03:57.176Z,81.55
2022-12-06T06:06:25.727Z,80.17
2022-12-06T06:08:53.196Z,80.52
2022-12-06T06:11:20.979Z,82.31
2022-12-06T06:13:48.401Z,83.60
2022-12-06T06:16:17.064Z,84.59
2022-12-06T06:18:44.987Z,82.08
2022-12-06T06:21:12.306Z,79.59
2022-12-06T06:23:39.699Z,75.95
2022-12-06T06:26:11.999Z,75.32
2022-12-06T06:28:39.361Z,81.68
2022-12-06T06:31:07.860Z,87.31
2022-12-06T06:33:36.192Z,84.71
2022-12-06T06:36:04.019Z,81.02
2022-12-06T06:38:31.705Z,79.82
2022-12-06T06:41:02.899Z,78.68
2022-12-06T06:43:30.449Z,82.77
2022-12-06T06:46:00.172Z,89.68
2022-12-06T06:48:30.583Z,85.97
2022-12-06T06:51:09.580Z,88.35
2022-12-06T06:53:37.712Z,83.86
2022-12-06T06:56:06.034Z,79.57
2022-12-06T06:58:33.477Z,80.37
2022-12-06T07:01:02.523Z,84.87
2022-12-06T07:03:30.175Z,87.26
2022-12-06T07:06:08.152Z,87.28
2022-12-06T07:08:35.912Z,83.28
2022-12-06T07:11:03.425Z,81.83
2022-12-06T07:13:31.516Z,79.93
2022-12-06T07:15:59.163Z,81.13
2022-12-06T07:18:26.464Z,79.64
2022-12-06T07:21:05.659Z,81.37
2022-12-06T07:23:34.649Z,84.61
2022-12-06T07:26:07.722Z,81.74
2022-12-06T07:28:36.908Z,80.57
2022-12-06T07:31:15.684Z,82.28
2022-12-06T07:33:43.904Z,78.56
2022-12-06T07:36:13.568Z,78.45
2022-12-06T07:38:49.093Z,77.07
2022-12-06T07:41:36.097Z,77.47
2022-12-06T07:44:30.642Z,79.12
2022-12-06T07:46:58.336Z,79.13
2022-12-06T07:49:25.763Z,88.17
2022-12-06T07:51:53.980Z,93.96
2022-12-06T07:54:22.337Z,96.10
2022-12-06T07:56:49.739Z,94.70
2022-12-06T07:59:17.078Z,94.18
2022-12-06T08:01:44.883Z,95.53
2022-12-06T08:04:12.824Z,87.53
2022-12-06T08:06:40.381Z,85.72
2022-12-06T08:09:08.412Z,91.39
2022-12-06T08:11:36.706Z,90.27
2022-12-06T08:14:04.695Z,93.08
2022-12-06T08:16:32.278Z,92.72
2022-12-06T08:18:59.920Z,93.73
2022-12-06T08:21:27.425Z,94.36
2022-12-06T08:23:55.267Z,91.37
2022-12-06T08:26:23.052Z,92.33
2022-12-06T08:28:50.425Z,94.61
2022-12-06T08:31:24.116Z,87.98
2022-12-06T08:33:51.863Z,89.71
2022-12-06T08:36:21.409Z,85.32
2022-12-06T08:38:49.295Z,88.46
2022-12-06T08:41:39.944Z,93.14
2022-12-06T08:44:11.933Z,91.65
2022-12-06T08:46:40.085Z,86.82
2022-12-06T08:49:07.869Z,86.65
2022-12-06T08:51:36.085Z,86.14
2022-12-06T08:54:04.144Z,87.75
2022-12-06T08:56:32.007Z,87.82
2022-12-06T08:58:59.449Z,86.15
2022-12-06T09:01:35.699Z,88.41
2022-12-06T09:04:06.488Z,89.38
2022-12-06T09:06:36.363Z,94.23
2022-12-06T09:09:03.888Z,90.66
2022-12-06T09:11:31.179Z,87.06
2022-12-06T09:13:58.818Z,90.55
2022-12-06T09:16:27.780Z,86.67
2022-12-06T09:18:55.163Z,89.65
2022-12-06T09:21:26.312Z,91.10
2022-12-06T09:23:57.957Z,90.00
2022-12-06T09:26:26.189Z,89.56
2022-12-06T09:28:54.901Z,92.04
2022-12-06T09:31:23.011Z,86.73
2022-12-06T09:33:51.497Z,88.16
2022-12-06T09:36:30.039Z,88.73
2022-12-06T09:39:02.036Z,88.67
2022-12-06T09:41:50.437Z,86.25
2022-12-06T09:44:39.451Z,84.41
2022-12-06T09:47:31.360Z,85.67
2022-12-06T09:50:26.931Z,83.16
2022-12-06T09:53:15.953Z,85.90
2022-12-06T09:55:56.248Z,84.11
2022-12-06T09:58:41.783Z,83.77
2022-12-06T10:01:37.561Z,83.39
2022-12-06T10:04:38.506Z,80.71
2022-12-06T10:07:24.211Z,83.02
2022-12-06T10:10:18.997Z,82.55
2022-12-06T10:13:23.576Z,81.72
2022-12-06T10:15:53.801Z,80.16
2022-12-06T10:18:59.658Z,78.99
2022-12-06T10:21:45.929Z,77.92
2022-12-06T10:24:22.889Z,77.70
2022-12-06T10:26:53.028Z,76.93
2022-12-06T10:29:40.606Z,83.09
2022-12-06T10:32:17.069Z,82.12
2022-12-06T10:34:54.844Z,78.03
2022-12-06T10:37:38.007Z,81.97
2022-12-06T10:40:16.313Z,80.34
2022-12-06T10:42:49.237Z,78.13
2022-12-06T10:45:47.937Z,76.10
2022-12-06T10:48:27.762Z,78.28
2022-12-06T10:51:01.336Z,78.19
2022-12-06T10:53:32.618Z,78.14
2022-12-06T10:56:14.665Z,77.25
2022-12-06T10:58:51.779Z,75.30
2022-12-06T11:01:22.380Z,76.28
2022-12-06T11:04:00.495Z,76.33
2022-12-06T11:06:34.643Z,78.36
2022-12-06T11:09:21.080Z,73.94
2022-12-06T11:11:49.189Z,73.47
2022-12-06T11:14:28.140Z,74.02
2022-12-06T11:17:02.404Z,74.38
2022-12-06T11:19:34.623Z,75.36
2022-12-06T11:22:20.237Z,76.66
2022-12-06T11:25:18.121Z,72.87
2022-12-06T11:27:52.276Z,74.23
2022-12-06T11:30:21.157Z,73.51
2022-12-06T11:32:50.489Z,73.58
2022-12-06T11:35:23.359Z,73.03
2022-12-06T11:37:55.542Z,74.31
2022-12-06T11:40:27.801Z,73.63
2022-12-06T11:42:57.159Z,74.14
2022-12-06T11:45:26.869Z,72.23
2022-12-06T11:47:56.455Z,72.93
2022-12-06T11:50:26.043Z,72.79
2022-12-06T11:52:59.342Z,71.34
2022-12-06T11:55:41.451Z,71.18
2022-12-06T11:58:15.788Z,73.53
2022-12-06T12:01:16.072Z,73.50
2022-12-06T12:03:45.509Z,72.12
2022-12-06T12:06:17.283Z,74.08
2022-12-06T12:09:02.556Z,71.49
2022-12-06T12:11:32.695Z,73.25
2022-12-06T12:14:25.433Z,71.12
2022-12-06T12:16:59.154Z,71.62
2022-12-06T12:19:32.912Z,69.89
2022-12-06T12:22:21.508Z,72.97
2022-12-06T12:27:41.217Z,70.02
2022-12-06T12:30:31.697Z,68.60
2022-12-06T12:33:05.091Z,69.18
2022-12-06T12:35:34.849Z,69.85
2022-12-06T12:38:11.432Z,70.74
2022-12-06T12:40:49.895Z,69.83
2022-12-06T12:43:31.479Z,67.55
2022-12-06T12:46:11.337Z,68.81
2022-12-06T12:48:40.306Z,71.51
2022-12-06T12:51:34.641Z,71.47
2022-12-06T12:54:18.882Z,71.94
2022-12-06T12:56:46.563Z,71.37
2022-12-06T12:59:17.314Z,72.16
2022-12-06T13:01:54.018Z,71.24
2022-12-06T13:05:11.145Z,68.90
2022-12-06T13:07:42.122Z,68.88
2022-12-06T13:10:24.727Z,69.41
2022-12-06T13:13:02.382Z,68.98
2022-12-06T13:15:40.902Z,71.46
2022-12-06T13:18:26.561Z,72.37
2022-12-06T13:20:57.123Z,70.93
2022-12-06T13:23:27.910Z,71.57
2022-12-06T13:26:18.087Z,73.42
2022-12-06T13:28:50.213Z,68.92
2022-12-06T13:31:20.492Z,69.25
2022-12-06T13:33:58.548Z,67.87
2022-12-06T13:36:27.112Z,68.43
2022-12-06T13:38:56.130Z,69.33
2022-12-06T13:41:54.252Z,71.31
2022-12-06T13:44:42.306Z,69.39
2022-12-06T13:47:27.889Z,69.21
2022-12-06T13:50:15.392Z,70.95
2022-12-06T13:52:42.716Z,69.71
2022-12-06T13:55:25.590Z,69.83
2022-12-06T13:57:55.926Z,70.76
2022-12-06T14:00:29.618Z,70.79
2022-12-06T14:03:21.635Z,70.20
2022-12-06T14:06:14.466Z,69.30
2022-12-06T14:08:54.804Z,68.51
2022-12-06T14:11:35.150Z,69.43
2022-12-06T14:14:15.186Z,68.00
2022-12-06T14:16:51.348Z,67.67
2022-12-06T14:19:20.947Z,70.06
2022-12-06T14:22:02.558Z,69.03
2022-12-06T14:24:39.741Z,67.50
2022-12-06T14:27:13.424Z,66.39
2022-12-06T14:29:42.211Z,65.94
2022-12-06T14:32:09.747Z,65.91
2022-12-06T14:34:37.445Z,69.21
2022-12-06T14:37:21.566Z,70.15
2022-12-06T14:39:53.269Z,71.63
2022-12-06T14:42:39.630Z,70.23
2022-12-06T14:45:13.514Z,69.18
2022-12-06T14:47:42.357Z,66.74
2022-12-06T14:50:28.687Z,70.80
2022-12-06T14:53:06.621Z,70.36
2022-12-06T14:55:36.015Z,67.61
2022-12-06T14:58:15.346Z,69.90
2022-12-06T15:01:22.504Z,67.83
2022-12-06T15:04:11.759Z,72.02
2022-12-06T15:06:52.457Z,73.53
2022-12-06T15:09:22.055Z,74.27
2022-12-06T15:12:08.076Z,74.94
2022-12-06T15:14:49.537Z,75.61
2022-12-06T15:17:19.933Z,75.52
2022-12-06T15:19:53.962Z,77.08
2022-12-06T15:22:27.690Z,76.45
2022-12-06T15:24:57.788Z,76.58
2022-12-06T15:27:27.897Z,77.47
2022-12-06T15:29:55.641Z,77.12
2022-12-06T15:32:24.196Z,77.81
2022-12-06T15:34:51.600Z,77.92
2022-12-06T15:40:59.672Z,78.46
2022-12-06T15:43:33.079Z,78.30
2022-12-06T15:46:02.602Z,75.34
2022-12-06T15:48:32.111Z,78.68
2022-12-06T15:51:00.240Z,78.35
2022-12-06T15:53:29.224Z,75.62
2022-12-06T15:55:57.225Z,75.52
2022-12-06T15:58:24.708Z,75.68
2022-12-06T16:00:52.138Z,74.32
2022-12-06T16:03:19.822Z,76.26
2022-12-06T16:05:48.068Z,72.57
2022-12-06T16:08:19.713Z,72.69
2022-12-06T16:11:11.229Z,73.80
2022-12-06T16:13:35.209Z,75.54
2022-12-06T16:16:03.018Z,73.48
2022-12-06T16:18:30.510Z,71.37
2022-12-06T16:20:58.457Z,74.30
2022-12-06T16:24:12.562Z,74.15
2022-12-06T16:26:37.021Z,73.41
2022-12-06T16:29:07.773Z,71.89
2022-12-06T16:31:38.773Z,71.51
2022-12-06T16:34:07.252Z,67.99
2022-12-06T16:36:35.261Z,65.88
2022-12-06T16:39:05.158Z,66.99
2022-12-06T16:41:34.798Z,65.32
2022-12-06T16:44:03.542Z,67.45
2022-12-06T16:46:33.160Z,69.44
2022-12-06T16:49:44.710Z,71.88
2022-12-06T16:52:03.186Z,74.94
2022-12-06T16:54:31.142Z,74.44
2022-12-06T16:56:58.850Z,74.83
2022-12-06T16:59:26.701Z,76.18
2022-12-06T17:01:56.606Z,77.02
2022-12-06T17:04:26.133Z,78.07
2022-12-06T17:06:56.265Z,77.22
2022-12-06T17:09:24.908Z,77.13
2022-12-06T17:12:07.002Z,76.38
2022-12-06T17:14:36.411Z,74.61
2022-12-06T17:17:04.602Z,73.83
2022-12-06T17:19:34.014Z,75.60
2022-12-06T17:22:02.437Z,74.71
2022-12-06T17:24:37.599Z,72.38
2022-12-06T17:27:07.097Z,67.45
2022-12-06T17:29:36.672Z,68.53
2022-12-06T17:32:05.956Z,69.59
2022-12-06T17:34:34.522Z,73.21
2022-12-06T17:37:03.418Z,75.64
2022-12-06T17:39:31.697Z,74.51
2022-12-06T17:42:18.697Z,76.39
2022-12-06T17:44:47.545Z,75.81
2022-12-06T17:47:16.150Z,78.10
2022-12-06T17:49:44.854Z,79.60
2022-12-06T17:52:13.695Z,79.72
2022-12-06T17:54:41.372Z,79.84
2022-12-06T17:57:16.579Z,79.99
2022-12-06T17:59:46.841Z,78.37
2022-12-06T18:02:18.869Z,75.16
2022-12-06T18:04:48.318Z,71.43
2022-12-06T18:07:17.243Z,69.95
2022-12-06T18:09:45.964Z,67.26
2022-12-06T18:12:17.098Z,67.54
2022-12-06T18:14:45.507Z,68.67
2022-12-06T18:17:14.272Z,68.18
2022-12-06T18:19:50.585Z,67.67
2022-12-06T18:22:19.228Z,66.50
2022-12-06T18:24:49.216Z,68.54
2022-12-06T18:27:18.966Z,71.38
2022-12-06T18:29:47.332Z,72.04
2022-12-06T18:32:15.902Z,72.70
2022-12-06T18:34:44.939Z,75.43
2022-12-06T18:37:13.995Z,76.84
2022-12-06T18:39:41.984Z,77.20
2022-12-06T18:42:10.086Z,78.48
2022-12-06T18:44:41.759Z,79.50
2022-12-06T18:47:10.290Z,81.31
2022-12-06T18:49:38.684Z,80.38
2022-12-06T18:52:08.397Z,81.60
2022-12-06T18:54:36.678Z,83.50
2022-12-06T18:57:05.649Z,81.87
2022-12-06T18:59:38.004Z,83.38
2022-12-06T19:02:06.491Z,83.74
2022-12-06T19:04:37.160Z,83.21
2022-12-06T19:07:06.815Z,83.58
2022-12-06T19:09:41.580Z,82.58
2022-12-06T19:12:10.864Z,82.52
2022-12-06T19:14:40.069Z,85.64
2022-12-06T19:17:13.880Z,86.09
2022-12-06T19:19:44.356Z,85.44
2022-12-06T19:22:13.208Z,85.54
2022-12-06T19:24:43.084Z,85.83
2022-12-06T19:27:13.237Z,85.19
2022-12-06T19:29:45.061Z,83.61
2022-12-06T19:32:19.058Z,77.93
2022-12-06T19:34:47.872Z,74.07
2022-12-06T19:37:26.834Z,72.52
2022-12-06T19:39:55.968Z,72.66
2022-12-06T19:42:44.377Z,71.21
2022-12-06T19:45:14.417Z,70.86
2022-12-06T19:47:44.572Z,71.69
2022-12-06T19:50:12.995Z,75.13
2022-12-06T19:52:42.241Z,78.10
2022-12-06T19:55:14.197Z,78.39
2022-12-06T19:57:46.641Z,79.79
2022-12-06T20:00:23.040Z,79.80
2022-12-06T20:02:52.167Z,79.77
2022-12-06T20:05:22.029Z,78.67
2022-12-06T20:07:50.023Z,78.36
2022-12-06T20:10:19.356Z,78.19
2022-12-06T20:12:48.140Z,77.27
2022-12-06T20:15:16.772Z,75.55
2022-12-06T20:17:45.992Z,73.98
2022-12-06T20:20:15.094Z,72.30
2022-12-06T20:22:43.467Z,76.86
2022-12-06T20:25:16.252Z,74.24
2022-12-06T20:27:51.458Z,74.57
2022-12-06T20:30:23.952Z,77.54
2022-12-06T20:32:53.233Z,78.05
2022-12-06T20:35:21.252Z,80.08
2022-12-06T20:37:53.046Z,83.22
2022-12-06T20:40:26.933Z,85.39
2022-12-06T20:43:01.512Z,83.50
2022-12-06T20:45:34.663Z,84.76
2022-12-06T20:48:03.046Z,88.29
2022-12-06T20:50:32.302Z,90.26
2022-12-06T20:53:00.348Z,91.77
2022-12-06T20:55:29.086Z,92.64
2022-12-06T20:57:58.008Z,91.11
2022-12-06T21:00:26.490Z,88.37
2022-12-06T21:02:55.501Z,86.14
2022-12-06T21:05:24.245Z,87.10
2022-12-06T21:07:52.369Z,86.08
2022-12-06T21:10:19.776Z,79.59
2022-12-06T21:12:47.895Z,78.48
2022-12-06T21:15:15.843Z,79.80
2022-12-06T21:17:43.559Z,86.04
2022-12-06T21:20:12.214Z,88.94
2022-12-06T21:22:40.826Z,87.37
2022-12-06T21:25:09.444Z,84.27
2022-12-06T21:27:37.603Z,81.15
2022-12-06T21:30:07.562Z,81.96
2022-12-06T21:32:35.031Z,84.87
2022-12-06T21:35:02.660Z,82.71
2022-12-06T21:37:31.104Z,75.47
2022-12-06T21:40:00.317Z,74.05
2022-12-06T21:42:29.050Z,74.92
2022-12-06T21:44:56.452Z,74.37
2022-12-06T21:47:23.819Z,72.10
2022-12-06T21:49:51.463Z,72.53
2022-12-06T21:52:18.866Z,73.31
2022-12-06T21:54:46.275Z,79.43
2022-12-06T21:57:13.944Z,83.73
2022-12-06T21:59:41.485Z,83.02
2022-12-06T22:02:13.197Z,84.40
2022-12-06T22:04:40.989Z,85.37
2022-12-06T22:07:09.566Z,87.79
2022-12-06T22:09:37.061Z,88.56
2022-12-06T22:12:05.205Z,90.05
2022-12-06T22:14:32.640Z,90.81
2022-12-06T22:17:01.065Z,91.10
2022-12-06T22:19:29.154Z,92.58
2022-12-06T22:21:56.857Z,89.36
2022-12-06T22:24:24.589Z,88.13
2022-12-06T22:26:52.272Z,87.32
2022-12-06T22:29:19.640Z,87.49
2022-12-06T22:31:48.278Z,88.13
2022-12-06T22:34:16.098Z,86.39
2022-12-06T22:36:43.486Z,86.69
2022-12-06T22:39:11.249Z,86.06
2022-12-06T22:41:39.330Z,86.44
2022-12-06T22:44:07.194Z,86.68
2022-12-06T22:46:36.703Z,83.70
2022-12-06T22:49:05.344Z,82.88
2022-12-06T22:51:36.708Z,86.27
2022-12-06T22:54:12.566Z,86.33
2022-12-06T22:56:47.140Z,85.87
2022-12-06T22:59:15.947Z,87.55
2022-12-06T23:01:43.640Z,88.07
2022-12-06T23:04:11.920Z,89.26
2022-12-06T23:06:40.025Z,89.80
2022-12-06T23:09:07.944Z,89.42
2022-12-06T23:11:36.695Z,89.50
2022-12-06T23:14:04.734Z,87.80
2022-12-06T23:16:33.052Z,88.74
2022-12-06T23:19:01.961Z,88.86
2022-12-06T23:21:32.064Z,87.93
2022-12-06T23:24:02.385Z,88.53
2022-12-06T23:26:35.461Z,87.93
2022-12-06T23:29:03.833Z,87.99
2022-12-06T23:31:34.689Z,90.32
2022-12-06T23:34:05.592Z,90.73
2022-12-06T23:36:35.113Z,87.57
2022-12-06T23:39:03.455Z,90.96
2022-12-06T23:41:31.863Z,92.29
2022-12-06T23:44:00.142Z,91.76
2022-12-06T23:46:30.096Z,92.52
2022-12-06T23:48:58.164Z,94.46
2022-12-06T23:51:34.086Z,94.17
2022-12-06T23:54:03.436Z,93.35
2022-12-06T23:56:33.838Z,93.73
2022-12-06T23:59:02.051Z,92.96
